Time;durP1;ratioP1;P1;durP2;ratioP2;P2;SDS_P1;SDS_P2;PMS_P1;PMS_P2;Temp;Humidity;BMP_temperature;BMP_pressure;BME280_temperature;BME280_humidity;BME280_pressure;Samples;Min_cycle;Max_cycle;Signal;HPM_P1;HPM_P2
2023/03/24 00:00:23;;;;;;;12.17;9.07;;;;;;;9.41;86.02;94963.28;5073086;28;20512;-80
2023/03/24 00:02:51;;;;;;;12.30;9.43;;;;;;;9.37;86.36;94957.44;5072852;28;20510;-81
2023/03/24 00:05:20;;;;;;;11.10;9.53;;;;;;;9.35;86.29;94958.53;5073236;28;20454;-80
2023/03/24 00:07:47;;;;;;;12.63;10.03;;;;;;;9.29;86.61;94952.81;5072882;28;20454;-81
2023/03/24 00:10:17;;;;;;;10.73;8.90;;;;;;;9.28;87.22;94947.72;5072947;28;20456;-81
2023/03/24 00:12:45;;;;;;;12.33;10.63;;;;;;;9.30;87.79;94956.28;5073160;28;20529;-81
2023/03/24 00:15:17;;;;;;;12.30;10.47;;;;;;;9.24;87.47;94949.72;5072580;28;20435;-81
2023/03/24 00:17:45;;;;;;;13.50;10.83;;;;;;;9.32;87.29;94959.59;5072575;28;20455;-81
2023/03/24 00:20:15;;;;;;;20.33;10.50;;;;;;;9.35;86.67;94961.16;5072802;28;20446;-81
2023/03/24 00:22:47;;;;;;;14.90;10.53;;;;;;;9.29;85.88;94952.00;5072601;28;20487;-80
2023/03/24 00:25:14;;;;;;;21.97;10.50;;;;;;;9.32;85.76;94959.59;5072498;28;20447;-80
2023/03/24 00:27:43;;;;;;;13.63;10.70;;;;;;;9.30;87.05;94964.13;5073286;28;20458;-81
2023/03/24 00:30:13;;;;;;;12.97;10.13;;;;;;;9.29;86.82;94965.91;5072789;28;20534;-81
2023/03/24 00:32:40;;;;;;;14.63;10.47;;;;;;;9.29;86.44;94970.31;5073128;28;20462;-81
2023/03/24 00:35:09;;;;;;;12.07;9.80;;;;;;;9.23;85.82;94962.91;5072683;28;20463;-80
2023/03/24 00:37:38;;;;;;;12.37;10.10;;;;;;;9.14;85.78;94964.47;5072473;28;20443;-80
2023/03/24 00:40:08;;;;;;;11.83;8.70;;;;;;;9.04;85.90;94962.72;5072302;28;20812;-81
2023/03/24 00:42:36;;;;;;;12.70;9.83;;;;;;;9.04;85.28;94973.19;5053849;28;20487;-81
2023/03/24 00:45:05;;;;;;;15.47;9.33;;;;;;;8.96;86.16;94963.28;5072477;28;20449;-80
2023/03/24 00:47:35;;;;;;;13.50;10.17;;;;;;;8.94;87.06;94967.81;5072380;28;20471;-80
2023/03/24 00:50:03;;;;;;;15.03;9.67;;;;;;;8.88;87.62;94958.66;5072267;28;20438;-80
2023/03/24 00:52:32;;;;;;;16.57;9.87;;;;;;;8.89;88.03;94962.09;5072512;28;20760;-80
2023/03/24 00:55:01;;;;;;;11.47;9.00;;;;;;;8.86;88.06;94962.34;5072139;28;20816;-80
2023/03/24 00:57:33;;;;;;;13.70;9.37;;;;;;;8.86;88.72;94957.09;5072173;28;20509;-80
2023/03/24 01:00:08;;;;;;;12.33;9.57;;;;;;;8.78;87.81;94949.00;5072111;28;20532;-80
2023/03/24 01:02:36;;;;;;;16.27;9.33;;;;;;;8.78;88.64;94943.78;5072151;28;20575;-80
2023/03/24 01:05:03;;;;;;;14.90;11.00;;;;;;;8.83;87.57;94939.03;5053256;28;20788;-81
2023/03/24 01:07:30;;;;;;;15.57;10.73;;;;;;;8.75;88.45;94944.84;5071912;28;20439;-81
2023/03/24 01:09:58;;;;;;;11.27;8.80;;;;;;;8.77;88.56;94944.72;5072171;28;20447;-80
2023/03/24 01:12:25;;;;;;;13.10;10.63;;;;;;;8.67;88.38;94940.22;5072333;28;20451;-80
2023/03/24 01:14:52;;;;;;;12.20;8.73;;;;;;;8.79;88.25;94945.44;5071882;28;20462;-80
2023/03/24 01:17:21;;;;;;;11.63;9.10;;;;;;;8.73;88.06;94946.75;5072065;28;20493;-80
2023/03/24 01:19:49;;;;;;;17.40;10.33;;;;;;;8.67;87.70;94948.06;5071852;28;20811;-79
2023/03/24 01:22:16;;;;;;;10.60;9.37;;;;;;;8.66;87.64;94948.97;5071810;28;20473;-80
2023/03/24 01:24:43;;;;;;;11.00;8.80;;;;;;;8.57;87.51;94939.22;5071711;28;20491;-81
2023/03/24 01:27:10;;;;;;;13.30;9.63;;;;;;;8.57;87.37;94943.63;5071954;28;20449;-81
2023/03/24 01:29:37;;;;;;;15.67;10.03;;;;;;;8.44;87.22;94935.91;5086792;28;20465;-80
2023/03/24 01:32:04;;;;;;;13.90;9.43;;;;;;;8.46;88.46;94941.84;5071827;28;20457;-81
2023/03/24 01:34:31;;;;;;;11.90;8.97;;;;;;;8.44;89.03;94948.97;5071688;28;20452;-80
2023/03/24 01:37:00;;;;;;;12.37;9.30;;;;;;;8.37;88.73;94945.13;5072286;28;20450;-81
2023/03/24 01:39:28;;;;;;;18.10;10.90;;;;;;;8.29;89.53;94931.78;5075730;28;20965;-80
2023/03/24 01:41:55;;;;;;;12.00;9.67;;;;;;;8.40;88.44;94942.31;5075624;28;20441;-80
2023/03/24 01:44:28;;;;;;;12.43;10.23;;;;;;;8.29;89.26;94939.63;5075670;28;20448;-80
2023/03/24 01:46:55;;;;;;;12.50;10.10;;;;;;;8.42;89.31;94947.41;5075083;28;20477;-80
2023/03/24 01:49:24;;;;;;;12.93;8.87;;;;;;;8.42;88.02;94939.56;5075524;28;20451;-81
2023/03/24 01:51:55;;;;;;;14.00;9.33;;;;;;;8.38;87.61;94929.34;5075546;28;20450;-79
2023/03/24 01:54:26;;;;;;;13.37;9.73;;;;;;;8.44;87.21;94941.13;5075324;28;20449;-80
2023/03/24 01:56:59;;;;;;;11.00;9.50;;;;;;;8.48;86.68;94945.16;5056415;28;20507;-80
2023/03/24 01:59:30;;;;;;;14.70;10.23;;;;;;;8.47;85.86;94946.13;5075378;28;20446;-80
2023/03/24 02:02:02;;;;;;;10.97;8.93;;;;;;;8.44;85.55;94945.53;5075113;28;20438;-81
2023/03/24 02:04:33;;;;;;;12.03;8.93;;;;;;;8.38;85.24;94946.78;5075371;28;20442;-80
2023/03/24 02:07:03;;;;;;;13.50;9.53;;;;;;;8.31;84.67;94946.41;5075222;28;20442;-80
2023/03/24 02:09:32;;;;;;;13.47;9.57;;;;;;;8.26;85.57;94948.53;5075273;28;20683;-80
2023/03/24 02:12:01;;;;;;;12.20;8.80;;;;;;;8.18;84.90;94965.75;5074937;28;20446;-80
2023/03/24 02:14:29;;;;;;;11.77;9.37;;;;;;;8.13;85.81;94960.03;5074974;28;20530;-80
2023/03/24 02:17:13;;;;;;;15.07;9.10;;;;;;;8.08;86.93;94952.50;5075211;28;20457;-80
2023/03/24 02:20:24;;;;;;;16.37;9.70;;;;;;;8.07;87.21;94958.66;5075218;28;20449;-80
2023/03/24 02:23:13;;;;;;;10.03;8.50;;;;;;;8.00;87.45;94947.84;5032251;28;20622;-80
2023/03/24 02:26:11;;;;;;;14.03;9.90;;;;;;;8.10;87.41;94957.63;5032495;28;20451;-81
2023/03/24 02:28:47;;;;;;;12.67;9.80;;;;;;;8.12;87.95;94961.81;5032390;28;20795;-80
2023/03/24 02:31:32;;;;;;;14.03;9.23;;;;;;;8.07;87.47;94964.72;5032308;28;20448;-80
2023/03/24 02:34:39;;;;;;;15.30;10.00;;;;;;;8.07;87.52;94959.50;5032259;28;20444;-80
2023/03/24 02:37:41;;;;;;;12.30;9.30;;;;;;;8.03;86.89;94965.06;4956978;28;20439;-80
2023/03/24 02:40:34;;;;;;;11.90;8.53;;;;;;;8.10;87.28;94962.88;4897123;29;20974;-80
2023/03/24 02:43:14;;;;;;;11.27;8.93;;;;;;;8.07;87.28;94953.44;4865651;29;20903;-79
2023/03/24 02:45:53;;;;;;;13.27;9.57;;;;;;;8.11;87.34;94948.84;4865908;29;20797;-80
2023/03/24 02:48:28;;;;;;;12.47;9.77;;;;;;;8.04;86.11;94949.28;4895964;29;20490;-80
2023/03/24 02:51:04;;;;;;;15.93;10.87;;;;;;;7.96;86.81;94951.63;4896809;29;20608;-81
2023/03/24 02:53:37;;;;;;;16.07;10.90;;;;;;;7.84;86.63;94931.66;4896831;29;20452;-80
2023/03/24 02:56:12;;;;;;;12.53;10.30;;;;;;;7.83;86.49;94929.16;4896838;29;20457;-81
2023/03/24 02:58:42;;;;;;;15.73;9.23;;;;;;;7.79;87.25;94931.13;4902860;29;20888;-80
2023/03/24 03:01:14;;;;;;;11.97;9.77;;;;;;;7.77;87.94;94927.78;4934538;29;20441;-80
2023/03/24 03:03:45;;;;;;;14.67;10.50;;;;;;;7.79;87.94;94923.28;4934543;29;20854;-81
2023/03/24 03:06:17;;;;;;;16.10;10.00;;;;;;;7.75;88.96;94911.41;4902832;29;20997;-80
2023/03/24 03:08:47;;;;;;;11.07;7.53;;;;;;;7.78;88.14;94913.78;4934482;29;20520;-80
2023/03/24 03:11:17;;;;;;;13.90;9.03;;;;;;;7.76;87.33;94913.91;4934554;29;21017;-80
2023/03/24 03:13:48;;;;;;;14.00;9.50;;;;;;;7.74;87.09;94910.56;4971050;28;20787;-80
2023/03/24 03:16:21;;;;;;;11.70;8.87;;;;;;;7.83;87.09;94918.69;5025641;28;20454;-80
2023/03/24 03:18:52;;;;;;;12.07;9.90;;;;;;;7.83;87.01;94916.91;5073819;28;20518;-80
2023/03/24 03:21:23;;;;;;;13.60;10.47;;;;;;;7.87;87.07;94923.59;5074069;28;20445;-80
2023/03/24 03:23:54;;;;;;;13.70;9.87;;;;;;;7.90;87.28;94920.75;5074102;28;20489;-80
2023/03/24 03:26:27;;;;;;;12.53;9.87;;;;;;;8.03;86.16;94926.72;5073935;28;20445;-80
2023/03/24 03:28:59;;;;;;;12.97;9.03;;;;;;;8.03;86.35;94931.94;5073761;28;20451;-80
2023/03/24 03:31:33;;;;;;;17.07;10.53;;;;;;;8.01;85.69;94928.59;5073521;28;20447;-80
2023/03/24 03:34:10;;;;;;;17.50;10.50;;;;;;;7.97;85.56;94924.56;5073727;28;20449;-80
2023/03/24 03:36:45;;;;;;;12.17;9.80;;;;;;;7.94;85.62;94922.19;5073839;28;20438;-80
2023/03/24 03:39:19;;;;;;;11.63;10.10;;;;;;;7.92;85.68;94902.34;5073523;28;20448;-80
2023/03/24 03:41:47;;;;;;;16.03;10.33;;;;;;;7.86;85.55;94908.84;5073350;28;20450;-80
2023/03/24 03:44:14;;;;;;;12.60;10.40;;;;;;;7.78;86.93;94911.19;5073541;28;21034;-80
2023/03/24 03:46:42;;;;;;;13.20;9.60;;;;;;;7.75;87.29;94914.84;5073249;28;20910;-80
2023/03/24 03:49:09;;;;;;;11.97;9.70;;;;;;;7.74;87.52;94920.19;5073233;28;20460;-80
2023/03/24 03:51:36;;;;;;;16.57;10.73;;;;;;;7.78;87.26;94916.41;5073451;28;20811;-80
2023/03/24 03:54:07;;;;;;;14.83;9.27;;;;;;;7.83;87.08;94919.53;5073241;28;20820;-80
2023/03/24 03:56:36;;;;;;;13.67;9.60;;;;;;;7.85;86.33;94922.88;5073473;28;20454;-80
2023/03/24 03:59:06;;;;;;;13.57;9.97;;;;;;;7.90;85.97;94919.91;5073230;28;20445;-80
2023/03/24 04:01:36;;;;;;;12.73;9.17;;;;;;;7.93;85.79;94917.91;5072548;28;20480;-80
2023/03/24 04:04:19;;;;;;;10.73;9.53;;;;;;;8.02;86.03;94927.66;5054082;28;20523;-80
2023/03/24 04:06:56;;;;;;;13.00;9.50;;;;;;;8.04;85.82;94933.59;5072868;28;20438;-81
2023/03/24 04:09:35;;;;;;;12.40;9.30;;;;;;;8.02;85.36;94939.88;5072661;28;20455;-81
2023/03/24 04:12:29;;;;;;;21.60;13.87;;;;;;;7.99;85.46;94946.19;5073013;28;20437;-81
2023/03/24 04:15:28;;;;;;;18.47;11.20;;;;;;;7.97;85.17;94952.47;5072641;28;20576;-79
2023/03/24 04:18:16;;;;;;;13.70;8.97;;;;;;;7.81;85.24;94949.31;5073135;28;20924;-80
2023/03/24 04:20:48;;;;;;;15.87;10.53;;;;;;;7.73;85.98;94958.53;5072973;28;20446;-80
2023/03/24 04:23:26;;;;;;;12.10;8.90;;;;;;;7.59;86.39;94947.44;5072765;28;20839;-81
2023/03/24 04:26:04;;;;;;;13.57;10.30;;;;;;;7.45;86.70;94951.00;5054928;28;20441;-81
2023/03/24 04:28:40;;;;;;;11.63;8.73;;;;;;;7.47;87.20;94954.34;5072650;28;20434;-81
2023/03/24 04:31:16;;;;;;;13.70;10.23;;;;;;;7.46;86.59;94948.28;5072677;28;20456;-80
2023/03/24 04:33:50;;;;;;;17.53;11.37;;;;;;;7.41;86.51;94952.19;5072345;28;20476;-81
2023/03/24 04:36:26;;;;;;;15.07;11.73;;;;;;;7.40;87.65;94953.13;5074066;28;20473;-80
2023/03/24 04:39:00;;;;;;;16.97;12.07;;;;;;;7.47;88.02;94944.75;5073713;28;20440;-80
2023/03/24 04:41:30;;;;;;;20.13;14.07;;;;;;;7.57;87.37;94954.53;5073767;28;20506;-79
2023/03/24 04:43:59;;;;;;;27.07;14.60;;;;;;;7.77;87.10;94952.13;5074093;28;20480;-80
2023/03/24 04:46:27;;;;;;;18.50;12.47;;;;;;;8.05;85.85;94955.34;5073656;28;20435;-80
2023/03/24 04:52:53;;;;;;;16.53;12.83;;;;;;;8.86;81.68;94962.34;5073597;28;20773;-81
2023/03/24 04:55:48;;;;;;;16.80;12.60;;;;;;;8.97;80.75;94965.81;5074065;28;20455;-80
2023/03/24 04:58:14;;;;;;;17.10;12.63;;;;;;;8.99;81.43;94968.31;4992329;28;20519;-79
2023/03/24 05:00:43;;;;;;;21.90;17.20;;;;;;;8.99;83.04;94965.69;4992164;28;20454;-81
2023/03/24 05:03:29;;;;;;;26.87;18.23;;;;;;;8.92;82.56;94975.78;4992311;28;20997;-81
2023/03/24 05:05:56;;;;;;;27.30;17.93;;;;;;;8.86;83.52;94965.78;4991897;28;20448;-80
2023/03/24 05:08:23;;;;;;;23.00;15.97;;;;;;;9.11;83.92;94972.56;4992347;28;20450;-80
2023/03/24 05:10:50;;;;;;;25.83;16.83;;;;;;;9.35;82.80;94977.69;4991953;28;20829;-80
2023/03/24 05:13:17;;;;;;;21.20;15.43;;;;;;;9.67;80.30;94980.38;4991305;28;20954;-81
2023/03/24 05:15:44;;;;;;;24.80;14.40;;;;;;;9.90;79.61;94976.75;4992318;28;20446;-80
2023/03/24 05:18:11;;;;;;;25.67;16.70;;;;;;;10.07;79.46;94983.22;4992250;28;20456;-80
2023/03/24 05:20:39;;;;;;;19.90;15.40;;;;;;;10.32;80.14;94987.34;4991962;28;20922;-80
2023/03/24 05:23:06;;;;;;;22.53;13.10;;;;;;;10.59;78.03;94986.00;4960939;28;20494;-80
2023/03/24 05:25:33;;;;;;;14.63;12.57;;;;;;;10.84;75.22;94993.50;4992390;28;20462;-80
2023/03/24 05:28:00;;;;;;;15.50;11.40;;;;;;;10.85;75.14;94987.28;4991577;28;20991;-80
2023/03/24 05:30:26;;;;;;;12.73;10.40;;;;;;;11.12;74.06;94981.50;4992225;28;20935;-80
2023/03/24 05:32:53;;;;;;;13.97;9.83;;;;;;;11.58;70.63;94993.31;4998620;28;20869;-83
2023/03/24 05:35:20;;;;;;;15.07;7.77;;;;;;;11.71;68.73;94991.25;5031865;28;20985;-83
2023/03/24 05:37:48;;;;;;;14.23;9.67;;;;;;;11.66;68.29;94982.94;5077690;28;20440;-83
2023/03/24 05:40:15;;;;;;;11.93;9.10;;;;;;;11.97;67.63;94994.25;5082233;28;20470;-83
2023/03/24 05:42:42;;;;;;;8.97;7.40;;;;;;;11.94;66.43;94991.91;5078564;28;20456;-83
2023/03/24 05:45:11;;;;;;;11.27;7.40;;;;;;;11.81;68.33;94989.50;5064300;28;20471;-86
2023/03/24 05:47:38;;;;;;;13.67;9.43;;;;;;;11.66;70.34;94985.56;5095541;28;20485;-89
2023/03/24 05:50:06;;;;;;;73.73;21.00;;;;;;;13.01;100.00;94983.84;5086074;28;20460;-85
2023/03/24 05:52:33;;;;;;;12.70;9.10;;;;;;;12.68;72.91;94968.50;5075492;28;20462;-88
2023/03/24 05:55:01;;;;;;;13.07;8.10;;;;;;;13.01;70.99;94985.63;5089626;28;20470;-87
2023/03/24 05:57:29;;;;;;;15.20;8.27;;;;;;;13.20;67.81;94975.06;5092229;28;20440;-85
2023/03/24 06:00:06;;;;;;;10.03;6.63;;;;;;;13.48;70.99;94980.38;5076022;28;20441;-83
2023/03/24 06:02:33;;;;;;;10.23;7.53;;;;;;;13.79;71.88;94980.91;5093209;28;20512;-87
2023/03/24 06:05:10;;;;;;;9.50;7.47;;;;;;;14.10;67.04;94982.22;5092381;28;20513;-88
2023/03/24 06:07:37;;;;;;;27.67;10.10;;;;;;;16.68;76.36;94983.06;5091055;28;20451;-87
2023/03/24 06:10:10;;;;;;;14.27;8.17;;;;;;;17.61;61.00;94993.22;5095422;28;20453;-88
2023/03/24 06:12:43;;;;;;;8.33;6.60;;;;;;;18.78;52.80;95001.16;5096074;28;20443;-87
2023/03/24 06:15:16;;;;;;;9.90;7.93;;;;;;;18.50;52.93;94998.19;5083441;28;20529;-86
2023/03/24 06:17:43;;;;;;;15.33;7.27;;;;;;;17.84;53.09;94991.53;5087251;28;20513;-86
2023/03/24 06:20:15;;;;;;;8.40;7.60;;;;;;;17.33;54.97;94975.06;5083423;28;20443;-86
2023/03/24 06:22:44;;;;;;;18.03;7.27;;;;;;;17.20;52.71;94993.34;5085243;28;20418;-85
2023/03/24 06:25:12;;;;;;;12.17;8.60;;;;;;;17.20;56.34;94993.34;5090205;28;20489;-82
2023/03/24 06:27:45;;;;;;;16.73;8.60;;;;;;;17.15;56.98;94985.06;5089188;28;20838;-84
2023/03/24 06:30:18;;;;;;;11.27;9.33;;;;;;;17.23;60.06;94977.09;5085817;28;20450;-80
2023/03/24 06:32:45;;;;;;;13.20;9.27;;;;;;;17.11;53.83;94991.69;5099027;28;20421;-83
2023/03/24 06:35:12;;;;;;;10.43;8.93;;;;;;;17.11;57.69;94993.53;5099294;28;20431;-84
2023/03/24 06:37:40;;;;;;;25.60;10.33;;;;;;;17.22;56.50;94995.81;5086762;28;20435;-86
2023/03/24 06:40:16;;;;;;;14.47;9.63;;;;;;;17.06;53.52;94995.81;5098023;28;20747;-86
2023/03/24 06:42:43;;;;;;;12.53;8.20;;;;;;;17.17;57.64;95000.81;5087875;28;20447;-86
2023/03/24 06:45:13;;;;;;;11.53;7.93;;;;;;;17.20;53.68;95001.28;5099699;28;20540;-84
2023/03/24 06:47:40;;;;;;;10.20;8.07;;;;;;;17.25;52.70;95001.59;5099218;28;20467;-84
2023/03/24 06:50:10;;;;;;;15.40;13.50;;;;;;;17.12;52.82;95000.47;5099757;28;20456;-85
2023/03/24 06:52:36;;;;;;;13.73;10.70;;;;;;;17.18;54.27;94997.97;5065386;28;20432;-84
2023/03/24 06:55:04;;;;;;;17.33;13.67;;;;;;;17.17;53.77;94995.50;5098831;28;20435;-84
2023/03/24 06:57:32;;;;;;;14.73;11.57;;;;;;;17.28;55.00;94990.66;5099969;28;20431;-86
2023/03/24 07:00:00;;;;;;;17.70;12.00;;;;;;;17.55;53.00;94996.56;5099567;28;20452;-85
2023/03/24 07:02:33;;;;;;;20.03;13.80;;;;;;;17.36;54.09;94999.63;5088131;28;20530;-85
2023/03/24 07:05:04;;;;;;;22.10;15.83;;;;;;;16.93;55.24;94991.84;5098479;28;20498;-86
2023/03/24 07:07:31;;;;;;;20.67;15.10;;;;;;;16.75;55.53;94993.00;5095161;28;20428;-85
2023/03/24 07:09:58;;;;;;;21.93;16.07;;;;;;;17.07;58.01;95000.16;5099588;28;20437;-86
2023/03/24 07:12:25;;;;;;;24.13;15.60;;;;;;;16.66;56.15;95003.63;5098942;28;20447;-86
2023/03/24 07:14:54;;;;;;;17.83;14.40;;;;;;;16.68;59.43;95006.91;5086274;28;20439;-86
2023/03/24 07:17:21;;;;;;;24.73;16.07;;;;;;;16.88;57.34;95011.91;5075249;28;20448;-86
2023/03/24 07:19:48;;;;;;;23.80;15.40;;;;;;;17.14;58.03;95007.25;5074192;28;20454;-86
2023/03/24 07:22:15;;;;;;;26.77;16.33;;;;;;;17.38;59.43;95009.06;5075246;28;20454;-86
2023/03/24 07:24:42;;;;;;;25.20;15.37;;;;;;;17.60;57.02;95008.31;5040004;28;20522;-87
2023/03/24 07:27:09;;;;;;;26.20;15.87;;;;;;;17.62;55.20;95008.16;5075530;28;20870;-86
2023/03/24 07:29:36;;;;;;;21.47;15.80;;;;;;;17.73;54.23;95013.16;5075498;28;20438;-85
2023/03/24 07:32:06;;;;;;;27.97;15.27;;;;;;;17.73;56.66;95009.66;5075565;28;20454;-86
2023/03/24 07:34:35;;;;;;;17.77;15.40;;;;;;;17.85;54.70;95008.28;5075014;28;20791;-86
2023/03/24 07:40:23;;;;;;;21.83;14.63;;;;;;;18.02;55.32;95003.75;5073375;28;20930;-85
2023/03/24 07:42:50;;;;;;;18.97;15.47;;;;;;;18.14;55.77;95008.50;5074892;28;20502;-84
2023/03/24 07:45:18;;;;;;;24.30;16.50;;;;;;;18.24;54.56;95003.81;5074799;28;20474;-85
2023/03/24 07:47:46;;;;;;;22.47;15.17;;;;;;;18.29;52.60;94997.97;5074598;28;20483;-83
2023/03/24 07:50:14;;;;;;;20.70;12.97;;;;;;;18.34;53.32;94995.63;5074740;28;20458;-85
2023/03/24 07:52:43;;;;;;;23.57;14.60;;;;;;;18.52;52.43;94996.19;5074546;28;20433;-83
2023/03/24 07:55:11;;;;;;;21.80;15.83;;;;;;;18.70;51.35;94997.72;5074838;28;20452;-86
2023/03/24 07:57:40;;;;;;;24.40;15.47;;;;;;;18.77;50.56;94998.69;5074779;28;20536;-85
2023/03/24 08:00:13;;;;;;;17.50;14.10;;;;;;;18.71;50.56;94988.75;5074309;28;20436;-85
2023/03/24 08:02:40;;;;;;;18.00;14.50;;;;;;;18.85;50.44;94990.66;5074205;28;20474;-83
2023/03/24 08:05:12;;;;;;;27.30;14.73;;;;;;;18.92;50.08;94990.75;5074466;28;20468;-84
2023/03/24 08:07:41;;;;;;;19.90;14.30;;;;;;;18.79;49.65;94986.88;5075231;28;20524;-83
2023/03/24 08:10:09;;;;;;;21.20;14.73;;;;;;;18.65;51.85;94984.97;5074603;28;20475;-85
2023/03/24 08:13:06;;;;;;;19.10;14.77;;;;;;;18.69;52.69;94986.28;5074433;28;20455;-86
2023/03/24 08:15:32;;;;;;;19.90;16.00;;;;;;;18.51;51.07;94980.41;5074248;28;20454;-86
2023/03/24 08:18:02;;;;;;;26.27;15.80;;;;;;;18.42;52.83;94974.31;5073799;28;20451;-86
2023/03/24 08:20:31;;;;;;;26.23;16.00;;;;;;;18.31;52.45;94974.72;5073233;28;20436;-86
2023/03/24 08:22:59;;;;;;;18.87;14.10;;;;;;;18.07;53.44;94967.69;5074429;28;20429;-85
2023/03/24 08:25:27;;;;;;;26.53;13.83;;;;;;;18.21;52.11;94961.66;5073941;28;20521;-85
2023/03/24 08:27:54;;;;;;;21.07;14.10;;;;;;;18.00;52.71;94955.31;5074423;28;20438;-84
2023/03/24 08:30:23;;;;;;;21.30;13.43;;;;;;;18.17;53.70;94975.44;5074352;28;20886;-85
2023/03/24 08:32:52;;;;;;;24.83;15.00;;;;;;;18.22;53.09;94959.84;5074247;28;20438;-84
2023/03/24 08:35:21;;;;;;;19.93;13.90;;;;;;;18.35;52.52;94957.41;5073986;28;20498;-85
2023/03/24 08:37:50;;;;;;;18.97;13.43;;;;;;;18.43;52.14;94960.00;5073978;28;20768;-85
2023/03/24 08:40:22;;;;;;;17.37;13.07;;;;;;;18.41;52.35;94954.03;5073824;28;20470;-85
2023/03/24 08:42:50;;;;;;;15.80;11.53;;;;;;;18.68;52.21;94946.59;5073930;28;20492;-85
2023/03/24 08:45:19;;;;;;;15.30;12.10;;;;;;;19.04;51.30;94949.44;5074577;28;21041;-85
2023/03/24 08:47:47;;;;;;;16.17;12.33;;;;;;;19.35;50.35;94944.78;5073513;28;20483;-84
2023/03/24 08:50:14;;;;;;;12.97;9.73;;;;;;;19.26;47.46;94940.56;5073944;28;20437;-85
2023/03/24 08:52:47;;;;;;;15.10;10.50;;;;;;;19.27;48.66;94944.88;5073919;28;20443;-85
2023/03/24 08:55:21;;;;;;;18.10;11.33;;;;;;;19.38;48.40;94931.16;5073254;28;20498;-85
2023/03/24 08:57:48;;;;;;;14.90;11.90;;;;;;;19.46;47.78;94916.91;5073934;28;20443;-85
2023/03/24 09:00:19;;;;;;;15.53;11.83;;;;;;;19.35;49.47;94922.69;5073414;28;20471;-84
2023/03/24 09:02:48;;;;;;;14.70;11.20;;;;;;;19.35;51.63;94923.50;5073749;28;20443;-86
2023/03/24 09:05:17;;;;;;;16.37;11.63;;;;;;;19.32;48.65;94912.41;5073261;28;20492;-85
2023/03/24 09:07:52;;;;;;;14.40;11.47;;;;;;;19.46;50.03;94912.41;5073251;28;20456;-85
2023/03/24 09:10:22;;;;;;;19.20;11.30;;;;;;;19.10;48.48;94912.31;5073355;28;20476;-85
2023/03/24 09:12:50;;;;;;;13.70;11.87;;;;;;;18.71;50.47;94914.31;5072656;28;20451;-87
2023/03/24 09:15:17;;;;;;;20.80;12.03;;;;;;;18.79;51.33;94911.59;5072690;28;20444;-86
2023/03/24 09:17:45;;;;;;;14.37;11.40;;;;;;;18.93;51.35;94899.34;5071323;28;21032;-85
2023/03/24 09:20:16;;;;;;;14.30;11.40;;;;;;;19.05;50.65;94903.19;5054830;28;20446;-86
2023/03/24 09:22:44;;;;;;;14.93;11.73;;;;;;;19.15;50.04;94904.59;5037955;28;20453;-86
2023/03/24 09:25:13;;;;;;;14.17;10.60;;;;;;;19.29;50.33;94891.47;5073426;28;20488;-85
2023/03/24 09:27:41;;;;;;;18.23;11.40;;;;;;;19.35;50.83;94874.78;5073430;28;20451;-86
2023/03/24 09:30:10;;;;;;;20.70;11.03;;;;;;;18.94;49.99;94885.88;5073442;28;20506;-85
2023/03/24 09:32:40;;;;;;;11.43;9.80;;;;;;;18.97;50.54;94898.78;5073522;28;20453;-84
2023/03/24 09:35:09;;;;;;;17.30;11.13;;;;;;;18.94;50.02;94888.53;5073092;28;20448;-85
2023/03/24 09:37:39;;;;;;;14.63;10.97;;;;;;;19.06;50.67;94889.72;5081318;28;20958;-86
2023/03/24 09:40:19;;;;;;;21.97;11.20;;;;;;;19.14;50.86;94889.66;5073336;28;20443;-85
2023/03/24 09:42:54;;;;;;;12.80;11.00;;;;;;;18.99;50.91;94872.03;5073277;28;20531;-85
2023/03/24 09:48:47;;;;;;;23.37;15.07;;;;;;;18.87;51.62;94876.97;5064750;28;20516;-84
2023/03/24 09:51:21;;;;;;;17.40;10.80;;;;;;;18.69;50.96;94863.16;5073753;28;20459;-85
2023/03/24 09:56:57;;;;;;;16.80;11.87;;;;;;;18.98;54.18;94867.72;5011244;28;20455;-85
2023/03/24 09:59:36;;;;;;;16.07;11.50;;;;;;;19.02;50.36;94858.34;5014129;28;20444;-85
2023/03/24 10:02:19;;;;;;;14.27;11.70;;;;;;;18.99;49.76;94854.22;5015047;28;20453;-84
2023/03/24 10:04:47;;;;;;;15.67;11.77;;;;;;;18.86;49.18;94860.19;5014727;28;20482;-84
2023/03/24 10:07:25;;;;;;;14.90;12.33;;;;;;;18.85;50.15;94845.25;5014529;28;20451;-85
2023/03/24 10:09:58;;;;;;;14.53;11.80;;;;;;;18.86;50.25;94854.88;5014299;28;20495;-85
2023/03/24 10:12:35;;;;;;;25.17;13.70;;;;;;;18.61;51.02;94844.63;5014705;28;20524;-86
2023/03/24 10:15:17;;;;;;;16.50;11.83;;;;;;;18.69;52.04;94833.94;4966317;28;20546;-86
2023/03/24 10:17:51;;;;;;;15.20;10.03;;;;;;;18.82;49.72;94845.59;5014585;28;20973;-86
2023/03/24 10:20:29;;;;;;;16.00;10.43;;;;;;;18.31;50.69;94838.41;4950364;28;20474;-86
2023/03/24 10:23:01;;;;;;;10.10;9.10;;;;;;;18.28;50.11;94836.94;4965696;28;20462;-87
2023/03/24 10:25:41;;;;;;;13.37;10.07;;;;;;;18.26;48.87;94837.09;5013855;28;20515;-86
2023/03/24 10:28:16;;;;;;;10.53;7.83;;;;;;;18.42;53.36;94825.50;5014896;28;20533;-85
2023/03/24 10:30:45;;;;;;;13.20;9.00;;;;;;;18.29;50.45;94827.13;5014441;28;20440;-86
2023/03/24 10:33:13;;;;;;;17.20;8.13;;;;;;;18.33;48.49;94834.56;5019057;28;20510;-85
2023/03/24 10:35:44;;;;;;;11.60;8.20;;;;;;;18.36;47.30;94826.22;5077026;28;20514;-92
2023/03/24 10:38:16;;;;;;;7.27;6.13;;;;;;;18.51;44.21;94826.28;5076413;28;20445;-89
2023/03/24 10:40:45;;;;;;;10.60;8.70;;;;;;;18.65;47.99;94819.34;5076204;28;20445;-88
2023/03/24 10:43:12;;;;;;;16.63;10.77;;;;;;;18.36;49.02;94828.06;5076525;28;20463;-84
2023/03/24 10:45:42;;;;;;;14.93;11.60;;;;;;;18.37;50.04;94819.09;5076274;28;20481;-85
2023/03/24 10:48:13;;;;;;;15.07;10.73;;;;;;;18.54;50.14;94815.28;5076955;28;20515;-88
2023/03/24 10:50:43;;;;;;;14.83;10.00;;;;;;;18.39;47.75;94822.38;5077203;28;20449;-85
2023/03/24 10:53:18;;;;;;;11.67;9.17;;;;;;;18.34;48.12;94816.78;5076300;28;20448;-86
2023/03/24 10:55:46;;;;;;;16.07;10.83;;;;;;;18.44;47.22;94812.88;5076921;28;20502;-88
2023/03/24 10:58:19;;;;;;;23.73;10.60;;;;;;;18.55;48.48;94806.31;5076896;28;20447;-88
2023/03/24 11:00:48;;;;;;;15.60;9.43;;;;;;;18.58;48.87;94793.47;5076401;28;20448;-86
2023/03/24 11:03:22;;;;;;;13.23;9.47;;;;;;;18.79;51.28;94802.59;5076494;28;20457;-87
2023/03/24 11:05:49;;;;;;;13.90;10.00;;;;;;;18.86;47.02;94791.06;5075761;28;20879;-87
2023/03/24 11:08:27;;;;;;;16.10;10.10;;;;;;;18.91;46.06;94798.47;5075635;28;20439;-86
2023/03/24 11:10:54;;;;;;;12.07;8.20;;;;;;;18.90;45.97;94791.50;5074986;28;20456;-87
2023/03/24 11:13:29;;;;;;;13.10;8.90;;;;;;;18.88;50.29;94789.03;5076634;28;20448;-90
2023/03/24 11:16:08;;;;;;;16.87;12.60;;;;;;;18.92;54.56;94784.19;5075356;28;20465;-87
2023/03/24 11:18:36;;;;;;;23.93;10.43;;;;;;;19.04;46.07;94781.88;5076042;28;20463;-86
2023/03/24 11:21:07;;;;;;;10.30;8.63;;;;;;;18.93;46.22;94777.03;5076714;28;20453;-87
2023/03/24 11:23:38;;;;;;;16.00;9.70;;;;;;;18.86;45.30;94787.56;5075946;28;20867;-88
2023/03/24 11:26:10;;;;;;;11.57;8.13;;;;;;;18.97;45.94;94770.31;5076289;28;21162;-88
2023/03/24 11:28:40;;;;;;;9.33;8.27;;;;;;;19.06;44.65;94769.19;5074816;28;20504;-87
2023/03/24 11:31:09;;;;;;;10.60;7.50;;;;;;;19.18;45.10;94759.75;5074678;28;20506;-88
2023/03/24 11:33:44;;;;;;;9.77;8.23;;;;;;;19.18;45.82;94757.09;5074954;28;20448;-87
2023/03/24 11:36:49;;;;;;;15.83;9.70;;;;;;;19.28;43.96;94764.78;5074066;28;20450;-86
2023/03/24 11:39:24;;;;;;;10.37;9.07;;;;;;;19.29;43.82;94761.94;4992441;28;20441;-87
2023/03/24 11:42:03;;;;;;;10.23;8.27;;;;;;;19.39;43.18;94759.81;4976148;28;20539;-89
2023/03/24 11:44:43;;;;;;;16.47;9.33;;;;;;;19.44;42.50;94737.97;4992861;28;20458;-87
2023/03/24 11:47:18;;;;;;;9.83;8.40;;;;;;;19.56;42.03;94738.31;4991827;28;20476;-88
2023/03/24 11:49:51;;;;;;;12.03;8.53;;;;;;;19.64;41.87;94735.53;4992670;28;20536;-86
2023/03/24 11:52:23;;;;;;;9.10;7.93;;;;;;;19.77;42.33;94744.47;4991910;28;20842;-88
2023/03/24 11:54:50;;;;;;;9.70;8.40;;;;;;;19.67;40.30;94736.00;4992594;28;20461;-87
2023/03/24 11:57:30;;;;;;;12.90;8.40;;;;;;;19.60;40.95;94721.78;4992066;28;20444;-87